WSLO2: Wister Lake

Data processed at Mon Sep 24 2018 22:02


All information presented herein is the property of the government of the United States of America and may be revised or deleted at any time without prior notice.
Dissemination of this information without the expressed written consent of the Public Affairs Office, Tulsa District U.S. Army Corps of Engineers is strictly prohibited.
These data are gathered electronically and, as presented, have not undergone any form of quality control. These data are not guaranteed to be valid or correct.
Go to home page.
Go to station list.
Go to home page.

Upstream stations:

Downstream station:
Previous Day
Next Day
Current Day
    
SHEF ID:       WSLO2     Wister Lake
STATION TYPE:  RESERVOIR
Normal Pool:  Bottom =   450.00, Top =   478.00

               PRECIP ELEVATION   STORAGE   TW-ELEV    INFLOW   RELEASE  AIR-TEMP  WIND-DIRWIND-SPEED REL-HUMID SOLAR-RAD   VOLTAGE  BAT-LOAD
                   in        ft     ac-ft        ft       cfs       cfs         F       deg       mph         %      W/m2      volt      volt
              Ccp-Rev   Ccp-Rev   Ccp-Rev   Ccp-Rev  Regi-Rev  Regi-Rev   Ccp-Rev   Ccp-Rev   Ccp-Rev   Ccp-Rev   Ccp-Rev   Ccp-Rev   Ccp-Rev
(US/Central)
09/24 00:00      0.00    483.35     93459      1.12      2805        60     66.60     57.90      0.39     96.89      1.00     13.98     13.71
09/24 01:00      0.01    483.38     93742      1.12      2804        60     66.70     54.90      0.39     96.58      1.00     13.98     13.71
09/24 02:00      0.00    483.40     93931      1.12      2347        60     66.72     57.60      0.40     96.96      1.00     13.98     13.71
09/24 03:00      0.00    483.43     94215      1.12      2804        60     66.92     80.20      0.37     96.40      1.00     13.98     13.71
09/24 04:00      0.00    483.44     94309      1.12      2576        60     67.03    110.50      0.22     95.30      1.00     13.99     13.71
09/24 05:00      0.00    483.47     94593      1.12      2347        60     66.94     49.30      0.40     96.47      1.00     13.99     13.71
09/24 06:00      0.00    483.49     94782      1.12      2118        60     66.70     52.20      0.38     96.52      1.00     13.99     13.71
09/24 07:00      0.00    483.50     94876      1.13      1906        60     66.70     25.40      0.38     96.28      1.00     13.98     13.71
09/24 08:00      0.00    483.52     95065      1.13      1648        60     67.14     61.10      0.37     95.79      6.00     13.98     13.65
09/24 09:00      0.00    483.52     95065      1.40      1602       143     67.91     77.90      0.37     93.41     50.00     13.99     13.71
09/24 10:00      0.00    483.53     95160      3.51      1362      1058     68.47     50.60      0.33     93.16     65.00     13.99     13.71
09/24 11:00      0.00    483.54     95254      3.50       892      1058     70.00    346.60      0.25     89.07    160.00     13.98     13.71
09/24 12:00      0.00    483.55     95349      3.51       864      1058     71.42     51.20      0.19     87.48    233.00     13.98     13.71
09/24 13:00      0.00    483.52     95065      4.58       424      1145     74.17     22.10      0.36     84.31    261.00     13.99     13.71
09/24 14:00      0.00    483.52     95065      4.65         0      2101     76.71     43.40      0.28     78.33    308.00     13.99     13.71
09/24 15:00      0.00    483.50     94876      4.66       364      2100     77.14      9.80      0.34     80.53    293.00     13.99     13.71
09/24 16:00      0.00    483.46     94498      5.51       532      2185     77.58     40.50      0.56     79.18    251.00     13.99     13.71
09/24 17:00      0.00    483.45     94404      5.49       699      3124     79.54     52.80      0.43     75.33    218.00     13.99     13.65
09/24 18:00      0.00    483.43     94215      5.49      1094      3123     80.01     29.50      0.30     75.40    128.00     13.99     13.71
09/24 19:00      0.00    483.41     94026      5.47      1261      3122     76.37    142.90      0.16     86.75     79.00     13.99     13.71
09/24 20:00      0.00    483.40     93931      5.43      1292      3121     73.98     57.40      0.33     91.89      3.00     13.99     13.71
09/24 21:00      0.00    483.38     93742      5.42      1063      3121     74.07     75.80      0.40     81.99      0.00     13.99     13.71
09/24 22:00      ----      ----      ----      ----      -901      -901      ----      ----      ----      ----      ----      ----      ----
09/24 23:00      ----      ----      ----      ----      ----      ----      ----      ----      ----      ----      ----      ----      ----